<?xml version="1.0" encoding="UTF-8" standalone="no" ?>
<gpx xmlns="http://www.topografix.com/GPX/1/1" xmlns:xsi="http://www.w3.org/2001/XMLSchema-instance" xsi:schemaLocation="http://www.topografix.com/GPX/1/1 http://www.topografix.com/GPX/1/1/gpx.xsd" version="1.1" creator="VisuGPX - https://www.visugpx.com">
  <metadata>
    <name>Le SUchet</name>
    <desc><![CDATA[rando à travers les alpages franco suisse]]></desc>
  </metadata>
  <trk>
    <name><![CDATA[Le suchet]]></name>
    <trkseg>
      <trkpt lat="46.76234" lon="6.40885">
        <ele>1068</ele>
        <time>2015-07-09T09:20:31+02:00</time>
      </trkpt>
      <trkpt lat="46.76227" lon="6.41032">
        <ele>1069</ele>
        <time>2015-07-09T09:20:36+02:00</time>
      </trkpt>
      <trkpt lat="46.76148" lon="6.40969">
        <ele>1074</ele>
        <time>2015-07-09T09:20:41+02:00</time>
      </trkpt>
      <trkpt lat="46.75997" lon="6.41042">
        <ele>1085</ele>
        <time>2015-07-09T09:20:46+02:00</time>
      </trkpt>
      <trkpt lat="46.75853" lon="6.40979">
        <ele>1108</ele>
        <time>2015-07-09T09:20:51+02:00</time>
      </trkpt>
      <trkpt lat="46.75853" lon="6.41355">
        <ele>1142</ele>
        <time>2015-07-09T09:20:56+02:00</time>
      </trkpt>
      <trkpt lat="46.75753" lon="6.41585">
        <ele>1186</ele>
        <time>2015-07-09T09:21:01+02:00</time>
      </trkpt>
      <trkpt lat="46.75595" lon="6.41877">
        <ele>1232</ele>
        <time>2015-07-09T09:21:06+02:00</time>
      </trkpt>
      <trkpt lat="46.75566" lon="6.42222">
        <ele>1254</ele>
        <time>2015-07-09T09:21:11+02:00</time>
      </trkpt>
      <trkpt lat="46.75544" lon="6.42451">
        <ele>1272</ele>
        <time>2015-07-09T09:21:16+02:00</time>
      </trkpt>
      <trkpt lat="46.75357" lon="6.42044">
        <ele>1242</ele>
        <time>2015-07-09T09:21:21+02:00</time>
      </trkpt>
      <trkpt lat="46.753" lon="6.42055">
        <ele>1247</ele>
        <time>2015-07-09T09:21:26+02:00</time>
      </trkpt>
      <trkpt lat="46.7535" lon="6.42295">
        <ele>1266</ele>
        <time>2015-07-09T09:21:31+02:00</time>
      </trkpt>
      <trkpt lat="46.75257" lon="6.42493">
        <ele>1278</ele>
        <time>2015-07-09T09:21:36+02:00</time>
      </trkpt>
      <trkpt lat="46.75264" lon="6.42671">
        <ele>1289</ele>
        <time>2015-07-09T09:21:41+02:00</time>
      </trkpt>
      <trkpt lat="46.75386" lon="6.4289">
        <ele>1308</ele>
        <time>2015-07-09T09:21:46+02:00</time>
      </trkpt>
      <trkpt lat="46.7548" lon="6.43214">
        <ele>1338</ele>
        <time>2015-07-09T09:21:51+02:00</time>
      </trkpt>
      <trkpt lat="46.75566" lon="6.43203">
        <ele>1349</ele>
        <time>2015-07-09T09:21:56+02:00</time>
      </trkpt>
      <trkpt lat="46.75616" lon="6.43568">
        <ele>1370</ele>
        <time>2015-07-09T09:22:01+02:00</time>
      </trkpt>
      <trkpt lat="46.7576" lon="6.43631">
        <ele>1390</ele>
        <time>2015-07-09T09:22:06+02:00</time>
      </trkpt>
      <trkpt lat="46.75724" lon="6.43819">
        <ele>1390</ele>
        <time>2015-07-09T09:22:11+02:00</time>
      </trkpt>
      <trkpt lat="46.75717" lon="6.44017">
        <ele>1387</ele>
        <time>2015-07-09T09:22:16+02:00</time>
      </trkpt>
      <trkpt lat="46.75753" lon="6.44184">
        <ele>1381</ele>
        <time>2015-07-09T09:22:21+02:00</time>
      </trkpt>
      <trkpt lat="46.75789" lon="6.44299">
        <ele>1376</ele>
        <time>2015-07-09T09:22:26+02:00</time>
      </trkpt>
      <trkpt lat="46.75846" lon="6.4432">
        <ele>1377</ele>
        <time>2015-07-09T09:22:31+02:00</time>
      </trkpt>
      <trkpt lat="46.75846" lon="6.44498">
        <ele>1360</ele>
        <time>2015-07-09T09:22:36+02:00</time>
      </trkpt>
      <trkpt lat="46.76011" lon="6.44633">
        <ele>1349</ele>
        <time>2015-07-09T09:22:41+02:00</time>
      </trkpt>
      <trkpt lat="46.75983" lon="6.44675">
        <ele>1343</ele>
        <time>2015-07-09T09:22:46+02:00</time>
      </trkpt>
      <trkpt lat="46.75911" lon="6.44706">
        <ele>1333</ele>
        <time>2015-07-09T09:22:51+02:00</time>
      </trkpt>
      <trkpt lat="46.75896" lon="6.4479">
        <ele>1324</ele>
        <time>2015-07-09T09:22:56+02:00</time>
      </trkpt>
      <trkpt lat="46.76062" lon="6.44894">
        <ele>1331</ele>
        <time>2015-07-09T09:23:01+02:00</time>
      </trkpt>
      <trkpt lat="46.76155" lon="6.45061">
        <ele>1329</ele>
        <time>2015-07-09T09:23:06+02:00</time>
      </trkpt>
      <trkpt lat="46.76148" lon="6.4527">
        <ele>1331</ele>
        <time>2015-07-09T09:23:11+02:00</time>
      </trkpt>
      <trkpt lat="46.7622" lon="6.45333">
        <ele>1338</ele>
        <time>2015-07-09T09:23:16+02:00</time>
      </trkpt>
      <trkpt lat="46.76292" lon="6.45396">
        <ele>1356</ele>
        <time>2015-07-09T09:23:21+02:00</time>
      </trkpt>
      <trkpt lat="46.76371" lon="6.45521">
        <ele>1391</ele>
        <time>2015-07-09T09:23:26+02:00</time>
      </trkpt>
      <trkpt lat="46.76421" lon="6.45698">
        <ele>1430</ele>
        <time>2015-07-09T09:23:31+02:00</time>
      </trkpt>
      <trkpt lat="46.76478" lon="6.45792">
        <ele>1456</ele>
        <time>2015-07-09T09:23:36+02:00</time>
      </trkpt>
      <trkpt lat="46.76558" lon="6.46022">
        <ele>1489</ele>
        <time>2015-07-09T09:23:41+02:00</time>
      </trkpt>
      <trkpt lat="46.7668" lon="6.4621">
        <ele>1504</ele>
        <time>2015-07-09T09:23:46+02:00</time>
      </trkpt>
      <trkpt lat="46.76773" lon="6.46064">
        <ele>1527</ele>
        <time>2015-07-09T09:23:51+02:00</time>
      </trkpt>
      <trkpt lat="46.76881" lon="6.46231">
        <ele>1532</ele>
        <time>2015-07-09T09:23:56+02:00</time>
      </trkpt>
      <trkpt lat="46.7701" lon="6.46377">
        <ele>1534</ele>
        <time>2015-07-09T09:24:01+02:00</time>
      </trkpt>
      <trkpt lat="46.77269" lon="6.46774">
        <ele>1561</ele>
        <time>2015-07-09T09:24:06+02:00</time>
      </trkpt>
      <trkpt lat="46.7719" lon="6.46471">
        <ele>1554</ele>
        <time>2015-07-09T09:24:11+02:00</time>
      </trkpt>
      <trkpt lat="46.77061" lon="6.46293">
        <ele>1525</ele>
        <time>2015-07-09T09:24:16+02:00</time>
      </trkpt>
      <trkpt lat="46.7696" lon="6.46241">
        <ele>1523</ele>
        <time>2015-07-09T09:24:21+02:00</time>
      </trkpt>
      <trkpt lat="46.76974" lon="6.46126">
        <ele>1490</ele>
        <time>2015-07-09T09:24:26+02:00</time>
      </trkpt>
      <trkpt lat="46.7724" lon="6.46179">
        <ele>1431</ele>
        <time>2015-07-09T09:24:31+02:00</time>
      </trkpt>
      <trkpt lat="46.77528" lon="6.4644">
        <ele>1378</ele>
        <time>2015-07-09T09:24:36+02:00</time>
      </trkpt>
      <trkpt lat="46.77751" lon="6.46763">
        <ele>1357</ele>
        <time>2015-07-09T09:24:41+02:00</time>
      </trkpt>
      <trkpt lat="46.77894" lon="6.46826">
        <ele>1348</ele>
        <time>2015-07-09T09:24:46+02:00</time>
      </trkpt>
      <trkpt lat="46.7742" lon="6.45928">
        <ele>1310</ele>
        <time>2015-07-09T09:24:51+02:00</time>
      </trkpt>
      <trkpt lat="46.77413" lon="6.45688">
        <ele>1288</ele>
        <time>2015-07-09T09:24:56+02:00</time>
      </trkpt>
      <trkpt lat="46.77377" lon="6.455">
        <ele>1262</ele>
        <time>2015-07-09T09:25:01+02:00</time>
      </trkpt>
      <trkpt lat="46.77413" lon="6.4526">
        <ele>1250</ele>
        <time>2015-07-09T09:25:06+02:00</time>
      </trkpt>
      <trkpt lat="46.77492" lon="6.44957">
        <ele>1198</ele>
        <time>2015-07-09T09:25:11+02:00</time>
      </trkpt>
      <trkpt lat="46.77456" lon="6.4479">
        <ele>1181</ele>
        <time>2015-07-09T09:25:16+02:00</time>
      </trkpt>
      <trkpt lat="46.7719" lon="6.44195">
        <ele>1141</ele>
        <time>2015-07-09T09:25:21+02:00</time>
      </trkpt>
      <trkpt lat="46.77104" lon="6.43944">
        <ele>1097</ele>
        <time>2015-07-09T09:25:26+02:00</time>
      </trkpt>
      <trkpt lat="46.76967" lon="6.43193">
        <ele>1054</ele>
        <time>2015-07-09T09:25:31+02:00</time>
      </trkpt>
      <trkpt lat="46.76543" lon="6.42514">
        <ele>1093</ele>
        <time>2015-07-09T09:25:36+02:00</time>
      </trkpt>
      <trkpt lat="46.76292" lon="6.41428">
        <ele>1056</ele>
        <time>2015-07-09T09:25:41+02:00</time>
      </trkpt>
      <trkpt lat="46.76306" lon="6.41157">
        <ele>1060</ele>
        <time>2015-07-09T09:25:46+02:00</time>
      </trkpt>
      <trkpt lat="46.76263" lon="6.40885">
        <ele>1065</ele>
        <time>2015-07-09T09:25:51+02:00</time>
      </trkpt>
    </trkseg>
  </trk>
</gpx>